createdAt,value
2017-12-13T00:00:07.446Z,3.83
2017-12-13T00:02:35.660Z,7.97
2017-12-13T00:05:03.089Z,7.53
2017-12-13T00:07:30.532Z,10.17
2017-12-13T00:09:58.730Z,3.90
2017-12-13T00:12:26.185Z,4.00
2017-12-13T00:14:53.621Z,7.75
2017-12-13T00:17:21.813Z,4.20
2017-12-13T00:19:49.246Z,8.47
2017-12-13T00:22:17.441Z,6.30
2017-12-13T00:24:44.881Z,3.80
2017-12-13T00:27:13.082Z,4.83
2017-12-13T00:29:40.529Z,3.47
2017-12-13T00:32:07.962Z,5.43
2017-12-13T00:34:36.153Z,6.23
2017-12-13T00:37:03.589Z,3.40
2017-12-13T00:39:31.017Z,4.10
2017-12-13T00:41:58.473Z,8.63
2017-12-13T00:44:28.831Z,3.63
2017-12-13T00:46:57.056Z,6.90
2017-12-13T00:49:24.472Z,3.80
2017-12-13T00:51:52.661Z,4.30
2017-12-13T00:54:20.099Z,3.83
2017-12-13T00:56:48.302Z,5.03
2017-12-13T00:59:15.737Z,2.73
2017-12-13T01:01:43.936Z,3.40
2017-12-13T01:04:11.389Z,3.07
2017-12-13T01:06:38.820Z,2.40
2017-12-13T01:09:07.022Z,4.93
2017-12-13T01:11:34.461Z,5.40
2017-12-13T01:14:02.651Z,3.60
2017-12-13T01:16:30.093Z,6.70
2017-12-13T01:18:57.530Z,3.13
2017-12-13T01:21:24.969Z,7.30
2017-12-13T01:23:52.414Z,3.80
2017-12-13T01:26:19.857Z,4.53
2017-12-13T01:28:48.070Z,4.53
2017-12-13T01:31:15.533Z,3.43
2017-12-13T01:33:42.969Z,3.37
2017-12-13T01:36:10.409Z,5.40
2017-12-13T01:38:37.861Z,5.10
2017-12-13T01:41:06.057Z,4.37
2017-12-13T01:43:33.507Z,4.93
2017-12-13T01:46:00.948Z,7.15
2017-12-13T01:48:28.385Z,5.13
2017-12-13T01:50:55.846Z,10.63
2017-12-13T01:53:23.274Z,6.63
2017-12-13T01:55:51.500Z,4.37
2017-12-13T01:58:18.933Z,12.73
2017-12-13T02:00:46.361Z,8.07
2017-12-13T02:03:14.579Z,5.27
2017-12-13T02:05:42.013Z,9.23
2017-12-13T02:08:09.453Z,7.90
2017-12-13T02:10:37.643Z,4.37
2017-12-13T02:13:05.088Z,5.30
2017-12-13T02:15:33.288Z,11.90
2017-12-13T02:18:00.728Z,4.70
2017-12-13T02:20:28.161Z,6.53
2017-12-13T02:25:29.229Z,8.88
2017-12-13T02:27:57.433Z,10.85
2017-12-13T02:30:24.873Z,4.78
2017-12-13T02:32:52.311Z,7.95
2017-12-13T02:35:20.522Z,6.40
2017-12-13T02:37:47.949Z,4.37
2017-12-13T02:40:27.958Z,6.30
2017-12-13T02:42:55.379Z,6.22
2017-12-13T02:45:22.800Z,5.80
2017-12-13T02:47:51.013Z,4.77
2017-12-13T02:50:18.453Z,7.85
2017-12-13T02:52:45.898Z,6.67
2017-12-13T02:55:14.119Z,5.60
2017-12-13T02:57:42.377Z,13.65
2017-12-13T03:00:09.795Z,5.23
2017-12-13T03:02:38.006Z,4.85
2017-12-13T03:05:05.501Z,5.85
2017-12-13T03:07:32.885Z,5.65
2017-12-13T03:10:01.098Z,6.05
2017-12-13T03:12:28.529Z,8.02
2017-12-13T03:14:56.781Z,6.05
2017-12-13T03:17:24.221Z,6.10
2017-12-13T03:19:51.660Z,7.93
2017-12-13T03:22:19.101Z,9.70
2017-12-13T03:24:46.532Z,7.65
2017-12-13T03:27:14.754Z,12.83
2017-12-13T03:29:42.192Z,5.43
2017-12-13T03:32:09.645Z,6.75
2017-12-13T03:34:37.089Z,6.50
2017-12-13T03:37:04.512Z,6.60
2017-12-13T03:39:31.968Z,7.73
2017-12-13T03:41:59.401Z,5.50
2017-12-13T03:44:26.849Z,8.63
2017-12-13T03:46:54.278Z,7.50
2017-12-13T03:49:21.737Z,5.15
2017-12-13T03:51:49.168Z,7.05
2017-12-13T03:54:17.365Z,7.00
2017-12-13T03:56:44.799Z,6.05
2017-12-13T03:59:13.005Z,4.65
2017-12-13T04:01:40.437Z,7.87
2017-12-13T04:04:08.633Z,4.80
2017-12-13T04:06:36.101Z,4.45
2017-12-13T04:09:03.537Z,3.87
2017-12-13T04:11:30.979Z,6.75
2017-12-13T04:13:59.190Z,4.33
2017-12-13T04:16:26.633Z,11.00
2017-12-13T04:18:54.115Z,5.22
2017-12-13T04:21:21.556Z,6.30
2017-12-13T04:23:48.981Z,5.22
2017-12-13T04:26:17.185Z,7.23
2017-12-13T04:28:45.628Z,3.97
2017-12-13T04:31:13.077Z,5.03
2017-12-13T04:33:40.512Z,3.92
2017-12-13T04:36:07.955Z,7.40
2017-12-13T04:38:35.398Z,8.00
2017-12-13T04:41:02.833Z,4.70
2017-12-13T04:43:31.043Z,4.60
2017-12-13T04:45:58.473Z,6.63
2017-12-13T04:48:25.917Z,4.32
2017-12-13T04:50:54.117Z,4.85
2017-12-13T04:53:21.552Z,5.03
2017-12-13T04:55:49.749Z,3.20
2017-12-13T04:58:17.230Z,5.80
2017-12-13T05:00:44.661Z,9.57
2017-12-13T05:03:12.100Z,3.90
2017-12-13T05:05:39.542Z,3.00
2017-12-13T05:08:07.754Z,5.90
2017-12-13T05:10:35.193Z,4.07
2017-12-13T05:13:02.630Z,3.10
2017-12-13T05:15:30.837Z,7.30
2017-12-13T05:17:58.288Z,4.67
2017-12-13T05:20:25.729Z,4.05
2017-12-13T05:22:53.926Z,5.00
2017-12-13T05:25:21.370Z,6.20
2017-12-13T05:27:48.807Z,2.90
2017-12-13T05:30:16.256Z,3.97
2017-12-13T05:32:43.680Z,4.33
2017-12-13T05:35:11.127Z,3.10
2017-12-13T05:37:38.579Z,2.75
2017-12-13T05:40:05.997Z,3.08
2017-12-13T05:42:34.197Z,3.67
2017-12-13T05:45:01.616Z,3.33
2017-12-13T05:47:29.073Z,4.93
2017-12-13T05:49:56.491Z,4.77
2017-12-13T05:52:23.929Z,8.88
2017-12-13T05:54:51.370Z,6.85
2017-12-13T05:57:18.818Z,6.45
2017-12-13T05:59:46.237Z,5.70
2017-12-13T06:02:13.673Z,4.10
2017-12-13T06:04:41.133Z,4.20
2017-12-13T06:07:08.570Z,3.08
2017-12-13T06:09:35.987Z,2.97
2017-12-13T06:12:03.408Z,2.77
2017-12-13T06:14:30.831Z,3.33
2017-12-13T06:16:58.258Z,12.93
2017-12-13T06:19:26.470Z,3.20
2017-12-13T06:21:53.899Z,5.93
2017-12-13T06:24:22.100Z,4.63
2017-12-13T06:26:49.536Z,6.73
2017-12-13T06:29:17.740Z,2.60
2017-12-13T06:31:45.171Z,5.73
2017-12-13T06:34:13.356Z,8.47
2017-12-13T06:36:40.806Z,5.50
2017-12-13T06:39:08.242Z,3.07
2017-12-13T06:41:36.445Z,3.97
2017-12-13T06:44:03.877Z,6.05
2017-12-13T06:46:32.104Z,5.00
2017-12-13T06:48:59.534Z,3.90
2017-12-13T06:51:27.018Z,4.67
2017-12-13T06:53:54.414Z,3.90
2017-12-13T06:56:21.848Z,4.00
2017-12-13T06:58:49.290Z,2.57
2017-12-13T07:01:16.747Z,5.57
2017-12-13T07:03:44.176Z,4.53
2017-12-13T07:06:11.622Z,4.67
2017-12-13T07:08:39.054Z,2.30
2017-12-13T07:11:06.496Z,4.23
2017-12-13T07:13:33.921Z,2.17
2017-12-13T07:16:01.377Z,2.90
2017-12-13T07:18:28.801Z,3.47
2017-12-13T07:20:56.256Z,5.80
2017-12-13T07:23:24.456Z,2.20
2017-12-13T07:25:51.877Z,3.10
2017-12-13T07:28:20.081Z,1.80
2017-12-13T07:30:47.513Z,2.70
2017-12-13T07:33:15.713Z,1.77
2017-12-13T07:35:43.178Z,7.50
2017-12-13T07:38:10.611Z,1.80
2017-12-13T07:40:38.046Z,2.57
2017-12-13T07:43:05.481Z,1.43
2017-12-13T07:45:32.910Z,2.60
2017-12-13T07:48:00.370Z,1.77
2017-12-13T07:50:27.802Z,5.10
2017-12-13T07:52:55.238Z,3.40
2017-12-13T07:55:23.434Z,2.73
2017-12-13T07:57:50.881Z,2.53
2017-12-13T08:00:19.083Z,2.03
2017-12-13T08:02:46.518Z,1.43
2017-12-13T08:05:13.937Z,1.63
2017-12-13T08:07:41.381Z,2.93
2017-12-13T08:10:08.820Z,4.35
2017-12-13T08:12:36.252Z,3.57
2017-12-13T08:15:03.680Z,1.10
2017-12-13T08:17:31.886Z,2.83
2017-12-13T08:19:59.318Z,3.90
2017-12-13T08:22:27.527Z,6.23
2017-12-13T08:24:54.950Z,2.70
2017-12-13T08:27:23.153Z,2.97
2017-12-13T08:29:50.569Z,4.20
2017-12-13T08:32:18.021Z,4.43
2017-12-13T08:34:45.450Z,2.10
2017-12-13T08:37:12.892Z,3.63
2017-12-13T08:39:40.357Z,1.30
2017-12-13T08:42:07.793Z,2.90
2017-12-13T08:44:35.229Z,1.93
2017-12-13T08:47:02.670Z,2.00
2017-12-13T08:49:30.106Z,2.77
2017-12-13T08:51:57.537Z,1.60
2017-12-13T08:54:24.974Z,3.47
2017-12-13T08:56:52.405Z,7.70
2017-12-13T08:59:20.626Z,2.40
2017-12-13T09:01:48.044Z,3.83
2017-12-13T09:04:15.490Z,5.73
2017-12-13T09:06:42.922Z,4.30
2017-12-13T09:09:10.356Z,6.57
2017-12-13T09:11:37.796Z,2.30
2017-12-13T09:14:05.238Z,2.93
2017-12-13T09:16:32.666Z,2.77
2017-12-13T09:19:00.101Z,5.10
2017-12-13T09:21:27.541Z,2.83
2017-12-13T09:23:54.990Z,5.93
2017-12-13T09:26:22.427Z,4.70
2017-12-13T09:28:49.849Z,1.70
2017-12-13T09:31:17.274Z,2.57
2017-12-13T09:33:44.718Z,2.43
2017-12-13T09:36:12.150Z,6.37
2017-12-13T09:38:39.591Z,2.57
2017-12-13T09:41:07.791Z,3.13
2017-12-13T09:43:35.238Z,2.70
2017-12-13T09:46:02.669Z,2.30
2017-12-13T09:48:30.877Z,2.50
2017-12-13T09:50:58.306Z,2.03
2017-12-13T09:53:26.519Z,1.60
2017-12-13T09:55:53.949Z,1.50
2017-12-13T09:58:22.228Z,13.53
2017-12-13T10:00:49.601Z,3.87
2017-12-13T10:03:17.030Z,3.43
2017-12-13T10:05:45.243Z,7.53
2017-12-13T10:08:12.656Z,1.57
2017-12-13T10:10:40.876Z,6.37
2017-12-13T10:13:08.288Z,4.10
2017-12-13T10:15:36.495Z,5.10
2017-12-13T10:18:03.917Z,1.93
2017-12-13T10:20:32.137Z,1.60
2017-12-13T10:22:59.606Z,4.07
2017-12-13T10:25:27.005Z,2.60
2017-12-13T10:27:55.198Z,2.10
2017-12-13T10:30:22.637Z,8.73
2017-12-13T10:32:50.834Z,2.00
2017-12-13T10:35:19.042Z,7.23
2017-12-13T10:37:46.468Z,2.40
2017-12-13T10:40:13.910Z,2.23
2017-12-13T10:42:42.105Z,3.50
2017-12-13T10:45:09.545Z,4.13
2017-12-13T10:47:37.738Z,2.70
2017-12-13T10:50:05.186Z,1.90
2017-12-13T10:52:32.617Z,5.30
2017-12-13T10:55:00.869Z,3.17
2017-12-13T10:57:28.245Z,4.33
2017-12-13T10:59:56.452Z,3.40
2017-12-13T11:02:23.878Z,1.40
2017-12-13T11:04:52.088Z,1.97
2017-12-13T11:07:19.517Z,1.70
2017-12-13T11:09:47.720Z,1.87
2017-12-13T11:12:15.150Z,1.43
2017-12-13T11:14:43.361Z,1.80
2017-12-13T11:17:10.778Z,6.07
2017-12-13T11:19:38.997Z,2.23
2017-12-13T11:22:06.415Z,2.50
2017-12-13T11:24:34.634Z,3.40
2017-12-13T11:27:02.071Z,2.40
2017-12-13T11:29:29.497Z,1.70
2017-12-13T11:31:57.712Z,3.77
2017-12-13T11:34:25.145Z,1.37
2017-12-13T11:36:52.580Z,3.50
2017-12-13T11:39:20.777Z,1.80
2017-12-13T11:41:48.219Z,3.53
2017-12-13T11:44:16.431Z,1.30
2017-12-13T11:46:43.853Z,1.43
2017-12-13T11:49:12.044Z,3.90
2017-12-13T11:51:39.477Z,1.83
2017-12-13T11:54:07.669Z,2.70
2017-12-13T11:56:35.872Z,3.90
2017-12-13T11:59:03.292Z,1.67
2017-12-13T12:01:31.506Z,3.07
2017-12-13T12:03:58.920Z,1.80
2017-12-13T12:06:27.134Z,1.40
2017-12-13T12:08:54.564Z,1.27
2017-12-13T12:11:21.984Z,1.70
2017-12-13T12:13:49.417Z,2.93
2017-12-13T12:16:16.858Z,1.60
2017-12-13T12:18:44.281Z,1.00
2017-12-13T12:21:12.492Z,1.20
2017-12-13T12:23:39.922Z,1.33
2017-12-13T12:26:07.353Z,1.63
2017-12-13T12:28:34.782Z,1.23
2017-12-13T12:31:02.225Z,1.20
2017-12-13T12:33:29.663Z,0.90
2017-12-13T12:35:57.097Z,1.33
2017-12-13T12:38:25.307Z,1.00
2017-12-13T12:40:52.753Z,4.10
2017-12-13T12:43:20.182Z,1.03
2017-12-13T12:45:48.373Z,0.90
2017-12-13T12:48:15.795Z,0.60
2017-12-13T12:50:43.233Z,0.70
2017-12-13T12:53:10.666Z,0.50
2017-12-13T12:55:38.098Z,0.70
2017-12-13T12:58:05.537Z,0.60
2017-12-13T13:00:33.749Z,1.17
2017-12-13T13:03:01.191Z,1.43
2017-12-13T13:05:28.622Z,0.73
2017-12-13T13:07:56.826Z,0.70
2017-12-13T13:10:24.254Z,0.70
2017-12-13T13:12:52.460Z,1.07
2017-12-13T13:15:19.885Z,0.60
2017-12-13T13:17:48.104Z,0.60
2017-12-13T13:20:15.526Z,0.50
2017-12-13T13:22:43.743Z,0.50
2017-12-13T13:25:11.165Z,0.50
2017-12-13T13:27:38.598Z,0.60
2017-12-13T13:30:06.022Z,0.60
2017-12-13T13:32:33.469Z,0.63
2017-12-13T13:35:00.897Z,0.83
2017-12-13T13:37:28.329Z,0.40
2017-12-13T13:39:56.534Z,0.60
2017-12-13T13:42:23.969Z,0.50
2017-12-13T13:44:52.163Z,0.60
2017-12-13T13:47:19.597Z,0.60
2017-12-13T13:49:47.800Z,0.50
2017-12-13T13:52:15.228Z,0.60
2017-12-13T13:54:43.430Z,0.60
2017-12-13T13:57:10.861Z,0.60
2017-12-13T13:59:39.057Z,0.50
2017-12-13T14:02:06.493Z,0.60
2017-12-13T14:04:34.693Z,0.60
2017-12-13T14:07:02.129Z,0.70
2017-12-13T14:09:30.321Z,0.50
2017-12-13T14:11:57.774Z,0.60
2017-12-13T14:14:25.201Z,0.50
2017-12-13T14:16:53.422Z,0.63
2017-12-13T14:19:20.850Z,0.50
2017-12-13T14:21:49.059Z,0.60
2017-12-13T14:24:16.496Z,0.60
2017-12-13T14:26:43.920Z,0.60
2017-12-13T14:29:11.355Z,0.60
2017-12-13T14:31:38.790Z,0.60
2017-12-13T14:34:06.266Z,0.57
2017-12-13T14:36:33.700Z,0.50
2017-12-13T14:39:01.134Z,0.50
2017-12-13T14:41:28.557Z,0.57
2017-12-13T14:43:55.999Z,0.50
2017-12-13T14:46:23.434Z,0.60
2017-12-13T14:48:50.894Z,2.63
2017-12-13T14:51:18.321Z,0.53
2017-12-13T14:53:45.765Z,0.77
2017-12-13T14:56:13.193Z,0.60
2017-12-13T14:58:40.644Z,0.50
2017-12-13T15:01:08.066Z,0.50
2017-12-13T15:03:35.509Z,0.63
2017-12-13T15:06:02.933Z,0.50
2017-12-13T15:08:31.154Z,0.50
2017-12-13T15:10:58.585Z,0.60
2017-12-13T15:13:26.025Z,0.60
2017-12-13T15:15:54.240Z,0.97
2017-12-13T15:18:21.670Z,0.70
2017-12-13T15:20:49.098Z,0.53
2017-12-13T15:23:16.543Z,0.40
2017-12-13T15:25:43.970Z,0.50
2017-12-13T15:28:11.405Z,0.60
2017-12-13T15:30:38.842Z,0.50
2017-12-13T15:33:07.059Z,0.50
2017-12-13T15:35:34.493Z,0.60
2017-12-13T15:38:06.201Z,0.63
2017-12-13T15:40:33.634Z,0.60
2017-12-13T15:43:01.071Z,0.63
2017-12-13T15:45:28.509Z,0.50
2017-12-13T15:47:56.691Z,0.50
2017-12-13T15:50:24.133Z,1.23
2017-12-13T15:52:52.339Z,0.50
2017-12-13T15:55:19.777Z,0.70
2017-12-13T15:57:47.225Z,1.43
2017-12-13T16:00:15.438Z,0.63
2017-12-13T16:02:42.872Z,0.70
2017-12-13T16:05:10.301Z,0.50
2017-12-13T16:07:38.500Z,0.60
2017-12-13T16:10:05.970Z,0.70
2017-12-13T16:12:33.404Z,0.50
2017-12-13T16:15:01.669Z,0.90
2017-12-13T16:17:29.870Z,0.50
2017-12-13T16:19:57.314Z,0.73
2017-12-13T16:22:25.505Z,0.70
2017-12-13T16:24:52.950Z,0.60
2017-12-13T16:27:20.375Z,0.57
2017-12-13T16:29:47.823Z,0.60
2017-12-13T16:32:15.257Z,1.03
2017-12-13T16:34:42.693Z,0.60
2017-12-13T16:37:10.120Z,0.70
2017-12-13T16:39:38.311Z,0.57
2017-12-13T16:42:05.748Z,0.60
2017-12-13T16:44:34.002Z,1.03
2017-12-13T16:47:01.465Z,0.60
2017-12-13T16:49:28.925Z,0.60
2017-12-13T16:51:56.344Z,0.80
2017-12-13T16:54:23.780Z,0.57
2017-12-13T16:56:51.219Z,0.50
2017-12-13T16:59:19.482Z,1.50
2017-12-13T17:01:46.906Z,0.70
2017-12-13T17:04:14.363Z,0.70
2017-12-13T17:06:41.808Z,1.57
2017-12-13T17:09:09.257Z,0.50
2017-12-13T17:11:36.723Z,0.70
2017-12-13T17:14:04.171Z,1.50
2017-12-13T17:16:31.627Z,1.17
2017-12-13T17:18:59.095Z,0.60
2017-12-13T17:21:26.551Z,0.77
2017-12-13T17:23:54.000Z,0.80
2017-12-13T17:26:21.457Z,0.63
2017-12-13T17:28:48.865Z,0.70
2017-12-13T17:31:17.122Z,0.80
2017-12-13T17:33:44.555Z,0.80
2017-12-13T17:36:12.005Z,0.77
2017-12-13T17:38:39.438Z,1.10
2017-12-13T17:41:06.881Z,1.10
2017-12-13T17:43:35.092Z,1.00
2017-12-13T17:46:02.522Z,1.27
2017-12-13T17:48:29.963Z,0.97
2017-12-13T17:50:57.390Z,1.50
2017-12-13T17:53:24.820Z,1.77
2017-12-13T17:55:52.276Z,2.73
2017-12-13T17:58:19.710Z,2.03
2017-12-13T18:00:47.150Z,1.63
2017-12-13T18:03:15.351Z,1.77
2017-12-13T18:05:42.799Z,2.10
2017-12-13T18:08:10.225Z,1.77
2017-12-13T18:10:38.433Z,1.93
2017-12-13T18:13:05.855Z,1.97
2017-12-13T18:15:34.070Z,4.70
2017-12-13T18:18:01.527Z,1.73
2017-12-13T18:20:28.973Z,3.07
2017-12-13T18:22:56.404Z,3.43
2017-12-13T18:25:24.631Z,1.27
2017-12-13T18:27:52.067Z,1.40
2017-12-13T18:30:19.492Z,1.67
2017-12-13T18:32:47.806Z,1.03
2017-12-13T18:35:15.256Z,1.23
2017-12-13T18:37:42.698Z,0.90
2017-12-13T18:40:10.914Z,1.03
2017-12-13T18:42:38.354Z,1.37
2017-12-13T18:45:05.790Z,0.70
2017-12-13T18:47:34.002Z,0.90
2017-12-13T18:50:01.429Z,0.83
2017-12-13T18:52:28.881Z,1.03
2017-12-13T18:54:57.082Z,0.83
2017-12-13T18:57:24.509Z,0.63
2017-12-13T18:59:52.705Z,1.17
2017-12-13T19:02:20.163Z,1.03
2017-12-13T19:04:47.594Z,1.03
2017-12-13T19:07:15.814Z,0.97
2017-12-13T19:09:43.249Z,0.83
2017-12-13T19:12:10.686Z,0.93
2017-12-13T19:14:38.900Z,0.70
2017-12-13T19:17:06.351Z,0.93
2017-12-13T19:19:33.768Z,1.30
2017-12-13T19:22:01.978Z,1.93
2017-12-13T19:24:29.416Z,1.33
2017-12-13T19:26:56.849Z,1.00
2017-12-13T19:29:24.286Z,1.00
2017-12-13T19:31:51.711Z,2.33
2017-12-13T19:34:19.155Z,1.70
2017-12-13T19:36:46.596Z,2.27
2017-12-13T19:39:14.030Z,1.10
2017-12-13T19:41:42.245Z,1.50
2017-12-13T19:44:09.671Z,1.13
2017-12-13T19:46:37.874Z,1.33
2017-12-13T19:49:05.332Z,1.27
2017-12-13T19:51:32.758Z,1.37
2017-12-13T19:54:00.965Z,0.90
2017-12-13T19:56:28.409Z,1.23
2017-12-13T19:58:55.882Z,1.20
2017-12-13T20:01:24.031Z,1.00
2017-12-13T20:03:51.455Z,0.60
2017-12-13T20:06:18.876Z,1.33
2017-12-13T20:08:46.305Z,0.77
2017-12-13T20:11:13.742Z,1.00
2017-12-13T20:13:41.947Z,0.70
2017-12-13T20:16:09.378Z,0.70
2017-12-13T20:18:37.599Z,1.10
2017-12-13T20:21:05.025Z,3.70
2017-12-13T20:23:32.461Z,6.20
2017-12-13T20:26:00.657Z,0.90
2017-12-13T20:28:28.093Z,0.80
2017-12-13T20:30:56.292Z,0.77
2017-12-13T20:33:23.733Z,3.50
2017-12-13T20:35:51.934Z,0.90
2017-12-13T20:38:19.374Z,1.03
2017-12-13T20:40:46.808Z,0.60
2017-12-13T20:43:14.246Z,0.70
2017-12-13T20:45:41.685Z,0.80
2017-12-13T20:48:09.131Z,0.50
2017-12-13T20:50:36.565Z,0.60
2017-12-13T20:53:04.001Z,0.90
2017-12-13T20:55:32.197Z,0.73
2017-12-13T20:57:59.639Z,3.80
2017-12-13T21:00:27.845Z,0.63
2017-12-13T21:02:55.269Z,0.83
2017-12-13T21:05:23.469Z,0.70
2017-12-13T21:07:50.910Z,0.57
2017-12-13T21:10:18.343Z,0.60
2017-12-13T21:12:46.554Z,0.50
2017-12-13T21:15:13.982Z,1.13
2017-12-13T21:17:42.174Z,0.50
2017-12-13T21:20:09.615Z,2.60
2017-12-13T21:22:37.819Z,0.67
2017-12-13T21:25:05.271Z,2.20
2017-12-13T21:27:32.698Z,1.17
2017-12-13T21:30:00.905Z,0.60
2017-12-13T21:32:28.337Z,0.60
2017-12-13T21:34:56.552Z,0.50
2017-12-13T21:37:23.973Z,0.40
2017-12-13T21:39:52.185Z,0.50
2017-12-13T21:42:19.620Z,0.50
2017-12-13T21:44:47.059Z,0.50
2017-12-13T21:47:15.256Z,0.60
2017-12-13T21:49:42.703Z,0.60
2017-12-13T21:52:10.904Z,0.50
2017-12-13T21:54:38.344Z,0.50
2017-12-13T21:57:05.776Z,0.60
2017-12-13T21:59:34.032Z,0.47
2017-12-13T22:02:01.450Z,0.57
2017-12-13T22:04:28.895Z,0.60
2017-12-13T22:06:56.321Z,0.50
2017-12-13T22:09:24.538Z,0.67
2017-12-13T22:11:51.978Z,0.60
2017-12-13T22:14:19.409Z,1.03
2017-12-13T22:16:47.614Z,0.80
2017-12-13T22:19:15.057Z,0.50
2017-12-13T22:21:42.490Z,0.50
2017-12-13T22:24:09.926Z,0.50
2017-12-13T22:26:37.379Z,0.50
2017-12-13T22:29:04.814Z,0.50
2017-12-13T22:31:32.253Z,0.40
2017-12-13T22:33:59.680Z,0.50
2017-12-13T22:36:27.879Z,1.13
2017-12-13T22:38:55.322Z,0.50
2017-12-13T22:41:23.532Z,0.50
2017-12-13T22:43:50.968Z,0.50
2017-12-13T22:46:18.397Z,0.70
2017-12-13T22:48:46.622Z,0.63
2017-12-13T22:51:14.066Z,0.90
2017-12-13T22:53:41.498Z,0.60
2017-12-13T22:56:09.708Z,0.60
2017-12-13T22:58:37.138Z,0.60
2017-12-13T23:01:04.576Z,0.60
2017-12-13T23:03:32.763Z,1.00
2017-12-13T23:06:00.953Z,0.63
2017-12-13T23:08:28.376Z,0.60
2017-12-13T23:10:56.578Z,1.03
2017-12-13T23:13:24.022Z,0.50
2017-12-13T23:15:52.221Z,5.87
2017-12-13T23:18:19.643Z,2.43
2017-12-13T23:20:47.839Z,0.60
2017-12-13T23:23:15.300Z,0.83
2017-12-13T23:25:42.750Z,1.33
2017-12-13T23:28:10.181Z,0.70
2017-12-13T23:30:37.621Z,0.70
2017-12-13T23:33:05.063Z,0.90
2017-12-13T23:35:32.508Z,1.53
2017-12-13T23:37:59.928Z,2.17
2017-12-13T23:40:28.137Z,1.30
2017-12-13T23:42:55.612Z,0.80
2017-12-13T23:45:23.021Z,2.23
2017-12-13T23:47:50.453Z,1.07
2017-12-13T23:50:17.872Z,2.50
2017-12-13T23:52:46.068Z,0.90
2017-12-13T23:55:13.497Z,0.70
2017-12-13T23:57:40.953Z,0.70
